Time;durP1;ratioP1;P1;durP2;ratioP2;P2;SDS_P1;SDS_P2;PMS_P1;PMS_P2;Temp;Humidity;BMP_temperature;BMP_pressure;BME280_temperature;BME280_humidity;BME280_pressure;Samples;Min_cycle;Max_cycle;Signal;HPM_P1;HPM_P2
2022/09/04 00:01:40;;;;;;;5.55;2.05;;;16.60;91.10;;;;;;5047221;28;20059;-46
2022/09/04 00:04:35;;;;;;;3.22;1.70;;;16.50;91.10;;;;;;5038260;28;20056;-50
2022/09/04 00:07:16;;;;;;;3.78;1.92;;;16.50;91.10;;;;;;5046254;28;20047;-49
2022/09/04 00:10:02;;;;;;;4.95;2.22;;;16.40;91.10;;;;;;5046881;28;20057;-53
2022/09/04 00:12:33;;;;;;;2.97;1.50;;;16.40;91.20;;;;;;5046889;28;20118;-47
2022/09/04 00:15:10;;;;;;;5.90;1.92;;;16.40;91.10;;;;;;5043887;28;20049;-46
2022/09/04 00:17:45;;;;;;;3.08;2.17;;;16.40;91.20;;;;;;5046847;28;20430;-51
2022/09/04 00:20:51;;;;;;;5.78;2.22;;;16.30;91.20;;;;;;5046688;28;20129;-51
2022/09/04 00:23:19;;;;;;;3.50;2.05;;;16.30;91.20;;;;;;5046370;28;20103;-46
2022/09/04 00:25:57;;;;;;;4.18;2.03;;;16.30;91.20;;;;;;5046612;28;20057;-48
2022/09/04 00:28:26;;;;;;;6.38;1.98;;;16.30;91.20;;;;;;5047342;28;20056;-48
2022/09/04 00:31:05;;;;;;;5.78;2.05;;;16.30;91.20;;;;;;5046321;28;20041;-46
2022/09/04 00:34:06;;;;;;;3.60;2.30;;;16.30;91.20;;;;;;5028173;28;20072;-49
2022/09/04 00:36:39;;;;;;;2.67;1.85;;;16.20;91.20;;;;;;5046327;28;20127;-48
2022/09/04 00:39:21;;;;;;;6.85;2.45;;;16.20;91.20;;;;;;5046984;28;20037;-47
2022/09/04 00:42:08;;;;;;;2.90;2.10;;;16.20;91.20;;;;;;5046439;28;20059;-47
2022/09/04 00:44:44;;;;;;;4.68;2.15;;;16.20;91.20;;;;;;5046623;28;20139;-47
2022/09/04 00:47:38;;;;;;;3.63;1.88;;;16.10;91.20;;;;;;5046982;28;20053;-48
2022/09/04 00:50:34;;;;;;;5.65;2.08;;;16.10;91.20;;;;;;5046791;28;20045;-47
2022/09/04 00:53:25;;;;;;;8.55;2.53;;;16.10;91.20;;;;;;5000396;28;20049;-47
2022/09/04 00:56:14;;;;;;;4.75;2.10;;;16.10;91.20;;;;;;5009672;28;20409;-47
2022/09/04 00:59:01;;;;;;;4.85;2.15;;;16.00;91.50;;;;;;4965130;28;20051;-47
2022/09/04 01:01:28;;;;;;;5.63;2.10;;;16.00;91.40;;;;;;4964840;28;20739;-49
2022/09/04 01:04:25;;;;;;;3.15;1.80;;;16.00;91.20;;;;;;4964241;28;20106;-47
2022/09/04 01:07:22;;;;;;;3.08;2.17;;;16.00;91.20;;;;;;4964825;28;20117;-49
2022/09/04 01:10:10;;;;;;;5.47;2.10;;;16.00;91.20;;;;;;4964746;28;20422;-48
2022/09/04 01:12:44;;;;;;;3.10;1.90;;;16.00;91.30;;;;;;4964400;28;20046;-47
2022/09/04 01:15:15;;;;;;;3.70;2.10;;;16.00;91.30;;;;;;4964354;28;20054;-49
2022/09/04 01:18:06;;;;;;;4.53;2.10;;;15.90;91.30;;;;;;4965407;28;20480;-47
2022/09/04 01:20:45;;;;;;;4.20;2.03;;;15.90;91.30;;;;;;4948979;28;20225;-50
2022/09/04 01:23:23;;;;;;;2.42;2.08;;;15.90;91.30;;;;;;4963756;28;20063;-46
2022/09/04 01:26:11;;;;;;;3.47;1.90;;;15.90;91.40;;;;;;4949013;28;20071;-50
2022/09/04 01:28:52;;;;;;;3.90;2.22;;;15.80;91.40;;;;;;4964712;28;20065;-50
2022/09/04 01:31:42;;;;;;;3.00;1.75;;;15.80;91.40;;;;;;4965115;28;20174;-50
2022/09/04 01:34:29;;;;;;;5.53;2.03;;;15.80;91.40;;;;;;4947217;28;20713;-49
2022/09/04 01:37:09;;;;;;;4.03;2.17;;;15.80;91.50;;;;;;5004203;28;20061;-46
2022/09/04 01:39:36;;;;;;;4.88;2.30;;;15.70;91.50;;;;;;5007088;28;20095;-46
2022/09/04 01:42:13;;;;;;;4.03;2.30;;;15.70;91.50;;;;;;4983981;28;20054;-48
2022/09/04 01:44:39;;;;;;;4.45;2.20;;;15.70;91.50;;;;;;5006381;28;20053;-46
2022/09/04 01:47:28;;;;;;;4.30;2.45;;;15.70;91.60;;;;;;5004440;28;20125;-49
2022/09/04 01:50:18;;;;;;;3.38;2.08;;;15.70;91.70;;;;;;5016000;28;20059;-54
2022/09/04 01:52:59;;;;;;;5.65;2.17;;;15.60;91.70;;;;;;5009598;28;20065;-46
2022/09/04 01:55:58;;;;;;;6.60;2.28;;;15.60;91.80;;;;;;5004795;28;20057;-48
2022/09/04 01:59:07;;;;;;;5.63;2.42;;;15.60;91.80;;;;;;5006461;28;20081;-46
2022/09/04 02:02:12;;;;;;;3.72;2.60;;;15.60;91.90;;;;;;5005272;28;20116;-47
2022/09/04 02:04:58;;;;;;;4.35;2.28;;;15.50;91.80;;;;;;4963921;28;20147;-48
2022/09/04 02:07:32;;;;;;;4.30;2.28;;;15.50;91.80;;;;;;4964163;28;20054;-46
2022/09/04 02:10:00;;;;;;;4.07;2.22;;;15.40;91.90;;;;;;4963799;28;20098;-47
2022/09/04 02:12:36;;;;;;;6.00;2.38;;;15.40;91.90;;;;;;4963504;28;20046;-48
2022/09/04 02:15:30;;;;;;;4.55;1.92;;;15.40;92.00;;;;;;4962491;28;21584;-47
2022/09/04 02:18:14;;;;;;;;;;;15.40;92.10;;;;;;4964088;28;20061;-46
2022/09/04 02:20:51;;;;;;;5.50;2.67;;;15.30;92.10;;;;;;4962478;28;20452;-49
2022/09/04 02:23:35;;;;;;;4.70;2.85;;;15.30;92.10;;;;;;4963803;28;20062;-50
2022/09/04 02:26:32;;;;;;;5.88;2.88;;;15.30;92.20;;;;;;4962077;28;20129;-48
2022/09/04 02:28:57;;;;;;;6.43;2.65;;;15.30;92.20;;;;;;4963839;28;20847;-51
2022/09/04 02:31:37;;;;;;;5.45;2.40;;;15.20;92.30;;;;;;4963172;28;20084;-46
2022/09/04 02:34:27;;;;;;;3.70;2.58;;;15.20;92.30;;;;;;4963176;28;20105;-49
2022/09/04 02:37:16;;;;;;;4.40;2.63;;;15.20;92.30;;;;;;4958116;28;20063;-51
2022/09/04 02:39:49;;;;;;;5.00;2.20;;;15.10;92.50;;;;;;4975517;28;20062;-47
2022/09/04 02:42:25;;;;;;;4.53;1.90;;;15.10;92.40;;;;;;5006133;28;20061;-48
2022/09/04 02:45:07;;;;;;;3.65;2.55;;;15.10;92.50;;;;;;5005449;28;20057;-48
2022/09/04 02:47:56;;;;;;;3.95;2.50;;;15.10;92.50;;;;;;5003800;28;20069;-49
2022/09/04 02:50:55;;;;;;;4.97;2.40;;;15.10;92.50;;;;;;5003112;28;20089;-54
2022/09/04 02:53:44;;;;;;;4.18;2.60;;;15.00;92.50;;;;;;5003024;28;20107;-49
2022/09/04 02:56:10;;;;;;;3.30;2.47;;;15.00;92.60;;;;;;5005473;28;20038;-47
2022/09/04 02:59:13;;;;;;;3.80;2.55;;;14.90;92.60;;;;;;5004693;28;20087;-48
2022/09/04 03:02:01;;;;;;;6.70;2.60;;;15.00;92.70;;;;;;5005272;28;20046;-49
2022/09/04 03:04:39;;;;;;;9.10;2.65;;;14.90;92.70;;;;;;5005351;28;20050;-51
2022/09/04 03:07:30;;;;;;;6.55;2.80;;;14.90;92.70;;;;;;5003228;28;20053;-47
2022/09/04 03:09:58;;;;;;;4.25;2.47;;;14.90;92.80;;;;;;5004380;28;20213;-47
2022/09/04 03:13:04;;;;;;;4.03;2.40;;;14.80;92.80;;;;;;5004488;28;20077;-47
2022/09/04 03:15:40;;;;;;;5.53;2.85;;;14.80;92.90;;;;;;5006018;28;20064;-50
2022/09/04 03:18:22;;;;;;;4.32;2.33;;;14.70;93.00;;;;;;5002923;28;20970;-46
2022/09/04 03:21:02;;;;;;;6.90;2.97;;;14.70;93.10;;;;;;5004062;28;20062;-46
2022/09/04 03:24:00;;;;;;;4.32;2.85;;;14.70;93.10;;;;;;5005602;28;20045;-46
2022/09/04 03:27:03;;;;;;;4.60;3.00;;;14.70;93.10;;;;;;5004868;28;20046;-46
2022/09/04 03:29:53;;;;;;;5.60;2.40;;;14.60;93.40;;;;;;4961902;28;20069;-48
2022/09/04 03:32:52;;;;;;;3.33;2.40;;;14.60;93.20;;;;;;4962585;28;20054;-52
2022/09/04 03:35:35;;;;;;;4.97;2.88;;;14.60;93.30;;;;;;4963233;28;20109;-46
2022/09/04 03:38:28;;;;;;;6.22;2.50;;;14.60;93.30;;;;;;4972886;28;20138;-47
2022/09/04 03:41:07;;;;;;;;;;;14.60;93.40;;;;;;4966044;28;20072;-47
2022/09/04 03:43:56;;;;;;;3.97;2.30;;;14.60;93.70;;;;;;4969195;28;20294;-46
2022/09/04 03:46:33;;;;;;;5.03;2.55;;;14.50;93.40;;;;;;4954527;28;20134;-49
2022/09/04 03:49:30;;;;;;;3.45;2.35;;;14.50;93.40;;;;;;4961584;28;20054;-49
2022/09/04 03:52:13;;;;;;;3.33;2.63;;;14.50;93.50;;;;;;4970141;28;20121;-48
2022/09/04 03:54:42;;;;;;;8.65;2.65;;;14.40;93.50;;;;;;4981937;28;20804;-48
2022/09/04 03:57:18;;;;;;;3.83;2.92;;;14.40;93.60;;;;;;4982498;28;20054;-48
2022/09/04 04:00:09;;;;;;;3.70;2.55;;;14.40;93.70;;;;;;4982561;28;20065;-51
2022/09/04 04:03:00;;;;;;;3.45;2.20;;;14.30;93.80;;;;;;4985797;28;20054;-48
2022/09/04 04:05:26;;;;;;;6.35;2.63;;;14.30;93.80;;;;;;5000210;28;20054;-46
2022/09/04 04:08:11;;;;;;;3.40;2.60;;;14.30;93.80;;;;;;5027552;28;20096;-48
2022/09/04 04:11:05;;;;;;;5.63;2.75;;;14.30;93.90;;;;;;5027229;28;20060;-48
2022/09/04 04:14:06;;;;;;;;;;;14.30;94.10;;;;;;5028644;28;20084;-51
2022/09/04 04:16:41;;;;;;;5.75;3.03;;;14.30;94.30;;;;;;4969674;28;20447;-45
2022/09/04 04:19:13;;;;;;;4.18;2.60;;;14.30;94.00;;;;;;4985173;28;20058;-47
2022/09/04 04:22:02;;;;;;;5.05;2.90;;;14.30;94.20;;;;;;4985018;28;20077;-47
2022/09/04 04:24:37;;;;;;;3.67;2.60;;;14.30;94.30;;;;;;4984930;28;20395;-46
2022/09/04 04:27:25;;;;;;;5.68;3.05;;;14.30;94.10;;;;;;4984701;28;20892;-46
2022/09/04 04:30:04;;;;;;;6.03;3.17;;;14.30;94.20;;;;;;4968088;28;20069;-47
2022/09/04 04:32:45;;;;;;;4.80;2.90;;;14.30;94.20;;;;;;4984376;28;20074;-45
2022/09/04 04:35:48;;;;;;;4.10;3.05;;;14.30;94.20;;;;;;4984984;28;20910;-48
2022/09/04 04:38:27;;;;;;;7.07;3.55;;;14.40;94.30;;;;;;4985365;28;20141;-49
2022/09/04 04:41:23;;;;;;;5.55;2.97;;;14.30;94.50;;;;;;4983605;28;20084;-46
2022/09/04 04:44:00;;;;;;;6.95;2.88;;;14.30;94.50;;;;;;4976568;28;20058;-48
2022/09/04 04:47:04;;;;;;;5.03;2.92;;;14.30;94.40;;;;;;4984234;28;20085;-45
2022/09/04 04:49:49;;;;;;;5.00;3.22;;;14.30;94.50;;;;;;4987429;28;20051;-49
2022/09/04 04:52:17;;;;;;;3.45;2.67;;;14.30;94.40;;;;;;5041533;28;20053;-47
2022/09/04 04:55:20;;;;;;;3.95;2.90;;;14.40;94.50;;;;;;5046607;28;20056;-45
2022/09/04 04:58:04;;;;;;;10.10;3.38;;;14.40;94.50;;;;;;5039182;28;20055;-46
2022/09/04 05:00:54;;;;;;;8.50;3.03;;;14.40;94.60;;;;;;5045303;28;20699;-46
2022/09/04 05:04:11;;;;;;;5.43;2.88;;;14.40;94.60;;;;;;5047031;28;20053;-48
2022/09/04 05:06:43;;;;;;;6.85;3.53;;;14.40;94.70;;;;;;4962632;28;20077;-49
2022/09/04 05:09:31;;;;;;;3.38;2.75;;;14.40;94.70;;;;;;4965131;28;20042;-46
2022/09/04 05:12:03;;;;;;;3.47;3.05;;;14.40;94.60;;;;;;4964515;28;20055;-46
2022/09/04 05:14:56;;;;;;;6.95;3.40;;;14.50;94.60;;;;;;4963972;28;20047;-46
2022/09/04 05:17:33;;;;;;;4.40;3.05;;;14.50;94.60;;;;;;4949635;28;20066;-48
2022/09/04 05:20:31;;;;;;;7.38;3.17;;;14.60;94.60;;;;;;4965907;28;20059;-49
2022/09/04 05:23:11;;;;;;;4.22;3.13;;;14.70;94.70;;;;;;4965080;28;20627;-49
2022/09/04 05:25:37;;;;;;;5.35;3.20;;;14.70;94.80;;;;;;4964946;28;20050;-47
2022/09/04 05:28:26;;;;;;;7.55;3.50;;;14.80;94.80;;;;;;4964840;28;20051;-50
2022/09/04 05:31:40;;;;;;;4.47;2.83;;;14.90;94.70;;;;;;4965559;28;20496;-47
2022/09/04 05:34:24;;;;;;;6.47;3.38;;;14.90;94.60;;;;;;4945333;29;20549;-49
2022/09/04 05:37:25;;;;;;;5.15;3.10;;;15.00;94.70;;;;;;4964816;28;20061;-50
2022/09/04 05:40:42;;;;;;;4.10;3.25;;;15.20;94.50;;;;;;5003899;28;20054;-48
2022/09/04 05:43:16;;;;;;;4.05;3.00;;;15.30;94.40;;;;;;4994776;28;20096;-48
2022/09/04 05:45:58;;;;;;;5.75;3.10;;;15.40;94.20;;;;;;5002202;28;20062;-47
2022/09/04 05:48:52;;;;;;;6.55;3.05;;;15.80;94.20;;;;;;5002937;28;20046;-50
2022/09/04 05:51:46;;;;;;;4.85;2.80;;;16.50;93.40;;;;;;4987077;28;20062;-45
2022/09/04 05:54:17;;;;;;;;;;;17.30;92.90;;;;;;4986609;28;20099;-47
2022/09/04 05:57:00;;;;;;;8.88;3.40;;;18.10;92.50;;;;;;5003089;28;19929;-48
2022/09/04 05:59:52;;;;;;;4.70;3.20;;;18.70;91.90;;;;;;4995643;28;20055;-47
2022/09/04 06:02:42;;;;;;;4.40;2.90;;;19.00;91.00;;;;;;4986833;28;20552;-46
2022/09/04 06:05:23;;;;;;;4.28;3.10;;;19.10;90.20;;;;;;5001561;28;20058;-46
2022/09/04 06:08:10;;;;;;;4.72;3.15;;;18.90;90.90;;;;;;5002324;28;20054;-48
2022/09/04 06:11:01;;;;;;;7.00;3.28;;;18.90;90.90;;;;;;5014198;28;20421;-49
2022/09/04 06:13:30;;;;;;;4.97;2.85;;;19.10;90.50;;;;;;5023592;28;20136;-47
2022/09/04 06:16:21;;;;;;;5.43;4.28;;;19.30;90.60;;;;;;5024545;28;20056;-48
2022/09/04 06:19:24;;;;;;;7.43;3.08;;;19.40;90.30;;;;;;5025164;28;20053;-47
2022/09/04 06:22:13;;;;;;;4.22;2.85;;;19.70;90.20;;;;;;5025163;28;20050;-46
2022/09/04 06:24:51;;;;;;;10.57;3.42;;;20.10;90.20;;;;;;5024017;28;20497;-46
2022/09/04 06:27:23;;;;;;;4.65;3.17;;;20.50;88.70;;;;;;5023961;28;20045;-49
2022/09/04 06:30:02;;;;;;;5.00;3.20;;;21.00;88.40;;;;;;5025302;28;20515;-47
2022/09/04 06:32:42;;;;;;;4.57;3.22;;;21.50;87.20;;;;;;5025617;28;20120;-46
2022/09/04 06:35:32;;;;;;;5.63;3.10;;;22.10;87.40;;;;;;5025457;28;20136;-51
2022/09/04 06:38:27;;;;;;;5.30;3.13;;;22.60;84.80;;;;;;5025373;28;20068;-49
2022/09/04 06:41:09;;;;;;;8.55;3.42;;;23.00;83.60;;;;;;5023835;28;20068;-46
2022/09/04 06:43:47;;;;;;;6.80;3.20;;;23.30;83.20;;;;;;5024663;28;20438;-50
2022/09/04 06:46:32;;;;;;;5.63;3.38;;;23.80;82.10;;;;;;5025043;28;20479;-53
2022/09/04 06:49:04;;;;;;;5.82;2.90;;;23.90;82.20;;;;;;5025532;28;20057;-46
2022/09/04 06:52:07;;;;;;;8.98;3.08;;;24.10;82.40;;;;;;5033454;28;20523;-45
2022/09/04 06:54:45;;;;;;;;;;;24.50;81.40;;;;;;5046157;28;20044;-46
2022/09/04 06:57:37;;;;;;;5.82;2.95;;;24.60;81.40;;;;;;5045184;28;19924;-50
2022/09/04 07:00:09;;;;;;;6.80;3.17;;;24.80;81.50;;;;;;5042003;28;20063;-46
2022/09/04 07:02:37;;;;;;;6.60;3.23;;;25.10;81.70;;;;;;5022275;28;20091;-48
2022/09/04 07:05:12;;;;;;;5.45;3.95;;;25.20;81.40;;;;;;5039358;28;20658;-47
2022/09/04 07:08:03;;;;;;;7.13;4.03;;;25.30;80.30;;;;;;5041298;28;20045;-49
2022/09/04 07:10:42;;;;;;;4.80;3.17;;;24.90;80.70;;;;;;5041012;28;20047;-46
2022/09/04 07:13:22;;;;;;;6.10;3.10;;;24.60;81.70;;;;;;5040699;28;20059;-46
2022/09/04 07:16:04;;;;;;;5.32;3.25;;;24.10;82.70;;;;;;5041951;28;20053;-47
2022/09/04 07:18:33;;;;;;;4.67;3.17;;;23.80;83.70;;;;;;5023213;28;20518;-46
2022/09/04 07:21:18;;;;;;;4.38;3.17;;;23.60;83.50;;;;;;5040378;28;20307;-47
2022/09/04 07:24:24;;;;;;;4.82;3.05;;;23.40;83.50;;;;;;5039618;28;20052;-47
2022/09/04 07:27:14;;;;;;;7.10;3.13;;;23.00;84.60;;;;;;5041283;28;20040;-46
2022/09/04 07:30:12;;;;;;;5.63;3.20;;;22.90;85.40;;;;;;5041086;28;20418;-48
2022/09/04 07:32:58;;;;;;;4.68;3.40;;;22.70;86.40;;;;;;5040993;28;20052;-48
2022/09/04 07:35:56;;;;;;;3.67;2.92;;;22.60;86.10;;;;;;5042950;28;20048;-46
2022/09/04 07:38:42;;;;;;;3.88;3.08;;;22.50;86.60;;;;;;5044764;28;20098;-46
2022/09/04 07:41:25;;;;;;;5.45;3.28;;;22.50;86.60;;;;;;5043595;28;20044;-50
2022/09/04 07:44:22;;;;;;;;;;;22.50;87.50;;;;;;5044282;28;20044;-47
2022/09/04 07:47:13;;;;;;;7.28;3.30;;;22.40;87.50;;;;;;5030481;28;19924;-48
2022/09/04 07:50:04;;;;;;;6.07;2.88;;;22.60;88.10;;;;;;5035680;28;20066;-48
2022/09/04 07:52:38;;;;;;;6.45;3.10;;;22.70;88.40;;;;;;5041978;28;20048;-47
2022/09/04 07:55:30;;;;;;;5.90;3.10;;;22.70;87.00;;;;;;5044765;28;20510;-49
2022/09/04 07:58:11;;;;;;;5.43;3.03;;;22.60;87.60;;;;;;5043140;28;20044;-48
2022/09/04 08:01:06;;;;;;;6.00;3.17;;;22.60;87.50;;;;;;5044566;28;20103;-48
2022/09/04 08:03:45;;;;;;;4.88;2.97;;;22.60;89.20;;;;;;5027768;28;20049;-49
2022/09/04 08:06:28;;;;;;;5.18;3.25;;;22.70;88.40;;;;;;5029996;28;20052;-47
2022/09/04 08:09:08;;;;;;;5.28;3.42;;;22.70;88.40;;;;;;5045500;28;20095;-51
2022/09/04 08:11:47;;;;;;;8.05;3.35;;;22.90;88.10;;;;;;5044332;28;20700;-49
2022/09/04 08:14:36;;;;;;;8.07;3.35;;;22.90;88.40;;;;;;5027777;28;20389;-52
2022/09/04 08:17:42;;;;;;;7.93;3.65;;;23.00;88.90;;;;;;5045145;28;20503;-49
2022/09/04 08:20:22;;;;;;;5.28;3.45;;;23.00;89.30;;;;;;4961961;28;20474;-49
2022/09/04 08:23:14;;;;;;;3.83;3.15;;;23.10;89.10;;;;;;4961158;28;20729;-50
2022/09/04 08:26:01;;;;;;;6.57;3.80;;;23.10;89.40;;;;;;4946536;28;20062;-48
2022/09/04 08:28:43;;;;;;;5.50;3.30;;;23.10;88.50;;;;;;4937328;28;20491;-49
2022/09/04 08:31:34;;;;;;;4.75;3.65;;;23.10;89.30;;;;;;4962539;28;20559;-47
2022/09/04 08:34:45;;;;;;;4.15;3.20;;;23.20;89.70;;;;;;4961557;28;20379;-50
2022/09/04 08:37:22;;;;;;;5.50;3.67;;;23.30;90.00;;;;;;4961757;28;20106;-49
2022/09/04 08:40:00;;;;;;;6.35;3.33;;;23.40;89.50;;;;;;4945387;28;20162;-51
2022/09/04 08:42:28;;;;;;;5.50;3.42;;;23.60;90.10;;;;;;4960985;28;20051;-49
2022/09/04 08:45:31;;;;;;;5.13;3.17;;;23.70;90.30;;;;;;4961943;28;20050;-48
2022/09/04 08:48:32;;;;;;;5.30;4.13;;;24.00;90.00;;;;;;4962122;28;20097;-50
2022/09/04 08:51:50;;;;;;;5.55;3.80;;;23.90;90.40;;;;;;4961496;28;20601;-49
2022/09/04 08:54:38;;;;;;;6.78;4.43;;;23.90;89.60;;;;;;4992713;28;20527;-50
2022/09/04 08:57:48;;;;;;;4.05;3.40;;;23.90;89.60;;;;;;5041869;28;20522;-49
2022/09/04 09:00:54;;;;;;;9.13;3.72;;;24.10;90.10;;;;;;5042359;28;20092;-49
2022/09/04 09:03:38;;;;;;;5.65;3.72;;;24.10;89.50;;;;;;4960225;28;20234;-50
2022/09/04 09:06:14;;;;;;;3.83;3.30;;;24.10;89.00;;;;;;4960747;28;20066;-50
2022/09/04 09:09:01;;;;;;;5.78;3.70;;;24.30;89.20;;;;;;4951736;28;20050;-49
2022/09/04 09:12:04;;;;;;;5.72;3.97;;;24.30;89.30;;;;;;4959278;28;20054;-49
2022/09/04 09:15:06;;;;;;;10.70;3.72;;;24.30;89.60;;;;;;4961167;28;20054;-51
2022/09/04 09:17:52;;;;;;;5.15;3.22;;;24.50;90.40;;;;;;4957544;28;20529;-50
2022/09/04 09:20:44;;;;;;;4.85;3.65;;;24.70;89.80;;;;;;4960139;28;20194;-50
2022/09/04 09:23:19;;;;;;;3.63;3.15;;;24.70;89.50;;;;;;4960437;28;20663;-51
2022/09/04 09:26:05;;;;;;;3.58;3.28;;;24.80;90.10;;;;;;4960453;28;20514;-52
2022/09/04 09:29:02;;;;;;;7.57;3.60;;;24.70;89.70;;;;;;4959157;28;20526;-53
2022/09/04 09:31:33;;;;;;;4.15;3.28;;;24.80;89.70;;;;;;4960650;28;20095;-52
2022/09/04 09:34:24;;;;;;;4.03;3.10;;;24.80;90.30;;;;;;4951444;28;20054;-48
2022/09/04 09:37:24;;;;;;;4.45;3.38;;;24.90;90.00;;;;;;4962316;28;20062;-50
2022/09/04 09:40:08;;;;;;;6.70;3.80;;;25.10;89.60;;;;;;4951311;28;20093;-53
2022/09/04 09:42:36;;;;;;;6.68;3.20;;;25.20;89.50;;;;;;4963530;28;20133;-54
2022/09/04 09:45:17;;;;;;;6.43;3.40;;;25.40;89.80;;;;;;4960896;28;20069;-49
2022/09/04 09:48:14;;;;;;;3.65;3.20;;;25.40;89.30;;;;;;4958357;28;20047;-50
2022/09/04 09:51:01;;;;;;;3.55;2.72;;;25.30;88.80;;;;;;4958481;28;20047;-50
2022/09/04 09:53:39;;;;;;;5.28;3.20;;;25.30;89.20;;;;;;4955773;28;20054;-51
2022/09/04 09:56:25;;;;;;;3.20;2.90;;;25.20;89.10;;;;;;4957315;28;20931;-52
2022/09/04 09:58:59;;;;;;;4.13;2.67;;;25.30;89.30;;;;;;4941875;28;20047;-50
2022/09/04 10:01:53;;;;;;;3.25;2.85;;;25.30;90.00;;;;;;4958513;28;20458;-50
2022/09/04 10:04:57;;;;;;;3.65;2.63;;;25.40;90.20;;;;;;4957724;28;20567;-49
2022/09/04 10:07:55;;;;;;;4.68;2.90;;;25.50;90.40;;;;;;4959560;28;20585;-49
2022/09/04 10:10:46;;;;;;;5.07;3.03;;;25.60;88.70;;;;;;4958271;28;20047;-51
2022/09/04 10:13:23;;;;;;;3.08;2.78;;;25.50;88.40;;;;;;4957984;28;20130;-53
2022/09/04 10:16:17;;;;;;;4.70;2.83;;;25.60;88.80;;;;;;4958198;28;20133;-52
2022/09/04 10:19:11;;;;;;;3.88;2.97;;;25.40;89.10;;;;;;4998252;28;20068;-49
2022/09/04 10:22:08;;;;;;;4.93;3.13;;;25.40;88.60;;;;;;4984134;28;20139;-49
2022/09/04 10:24:34;;;;;;;6.78;2.90;;;25.60;90.00;;;;;;4920831;29;20095;-49
2022/09/04 10:27:35;;;;;;;3.70;2.78;;;25.70;90.30;;;;;;4921792;29;20190;-49
2022/09/04 10:30:15;;;;;;;3.10;2.85;;;25.90;88.60;;;;;;4921261;29;20110;-50
2022/09/04 10:32:53;;;;;;;4.43;2.78;;;25.90;88.90;;;;;;4920036;29;20048;-50
2022/09/04 10:35:34;;;;;;;2.67;2.30;;;26.20;89.50;;;;;;4911689;29;20492;-51
2022/09/04 10:38:23;;;;;;;3.63;3.13;;;26.40;89.60;;;;;;4928784;29;20055;-51
2022/09/04 10:41:27;;;;;;;4.38;2.55;;;26.60;88.40;;;;;;4939744;29;20055;-51
2022/09/04 10:44:01;;;;;;;4.65;2.70;;;26.60;88.50;;;;;;4940103;29;20047;-52
2022/09/04 10:47:00;;;;;;;6.50;2.45;;;26.70;88.70;;;;;;4940158;29;20063;-51
2022/09/04 10:50:03;;;;;;;5.82;3.08;;;26.70;89.00;;;;;;4940344;29;20058;-50
2022/09/04 10:53:04;;;;;;;3.13;2.65;;;26.80;89.60;;;;;;4918290;29;20053;-50
2022/09/04 10:56:20;;;;;;;4.47;2.63;;;26.80;88.30;;;;;;4902088;29;20108;-50
2022/09/04 10:58:58;;;;;;;6.88;2.60;;;26.80;87.90;;;;;;4903352;29;20123;-50
2022/09/04 11:01:42;;;;;;;4.65;2.65;;;26.80;87.40;;;;;;4928529;28;20059;-49
2022/09/04 11:04:26;;;;;;;7.85;3.05;;;26.80;87.50;;;;;;4961001;28;20053;-53
2022/09/04 11:07:30;;;;;;;3.25;2.95;;;26.80;87.70;;;;;;4947974;28;20130;-53
2022/09/04 11:10:10;;;;;;;3.67;2.30;;;26.70;87.70;;;;;;4961587;28;20055;-50
2022/09/04 11:12:45;;;;;;;2.67;2.40;;;26.80;88.80;;;;;;4946648;28;20137;-52
2022/09/04 11:15:13;;;;;;;4.35;2.70;;;26.80;89.20;;;;;;4963672;28;20129;-51
2022/09/04 11:17:54;;;;;;;3.22;2.92;;;26.90;87.90;;;;;;4964080;28;20058;-50
2022/09/04 11:20:32;;;;;;;4.13;2.50;;;26.90;87.20;;;;;;4962206;28;20058;-52
2022/09/04 11:23:17;;;;;;;3.47;2.92;;;27.00;89.00;;;;;;4959784;28;20050;-53
2022/09/04 11:26:04;;;;;;;4.57;2.47;;;27.20;87.90;;;;;;4963951;28;20109;-50
2022/09/04 11:28:55;;;;;;;3.00;2.70;;;27.20;88.90;;;;;;4964170;28;20427;-49
2022/09/04 11:31:51;;;;;;;5.43;2.60;;;27.20;87.00;;;;;;4966843;28;20062;-49
2022/09/04 11:35:01;;;;;;;3.00;2.70;;;27.20;87.60;;;;;;5044194;28;20048;-51
2022/09/04 11:37:37;;;;;;;3.80;2.50;;;27.30;88.50;;;;;;4961746;28;20437;-54
2022/09/04 11:40:16;;;;;;;5.30;2.08;;;27.30;88.80;;;;;;4961900;28;20058;-54
2022/09/04 11:43:10;;;;;;;2.72;2.25;;;27.30;88.00;;;;;;4945772;28;20144;-49
2022/09/04 11:45:53;;;;;;;2.47;2.17;;;27.40;87.80;;;;;;4963295;28;20050;-50
2022/09/04 11:48:54;;;;;;;3.20;2.17;;;27.40;88.40;;;;;;4962411;28;20210;-51
2022/09/04 11:51:39;;;;;;;3.05;2.03;;;27.50;89.40;;;;;;4907246;29;20504;-51
2022/09/04 11:54:13;;;;;;;2.88;2.45;;;27.60;87.90;;;;;;4923818;29;20091;-49
2022/09/04 11:56:47;;;;;;;4.82;2.50;;;27.60;87.50;;;;;;4924366;29;20048;-51
2022/09/04 11:59:31;;;;;;;3.95;2.70;;;27.60;87.40;;;;;;4924756;29;20064;-50
2022/09/04 12:02:09;;;;;;;3.45;2.30;;;27.60;88.60;;;;;;4923847;29;20206;-51
2022/09/04 12:05:01;;;;;;;4.65;2.33;;;27.60;86.20;;;;;;4924903;29;20052;-53
2022/09/04 12:07:33;;;;;;;;;;;27.70;88.30;;;;;;4922682;29;20060;-50
2022/09/04 12:10:29;;;;;;;2.30;2.08;;;27.70;86.40;;;;;;4934176;29;19927;-50
2022/09/04 12:13:03;;;;;;;4.70;2.67;;;27.80;90.00;;;;;;4944799;28;20061;-52
2022/09/04 12:16:03;;;;;;;3.15;2.20;;;27.70;87.60;;;;;;4979575;28;20046;-52
2022/09/04 12:18:59;;;;;;;3.30;2.33;;;27.70;86.90;;;;;;4979752;28;20492;-50
2022/09/04 12:21:46;;;;;;;3.17;2.60;;;27.60;88.60;;;;;;4984461;28;20060;-55
2022/09/04 12:24:53;;;;;;;3.00;2.30;;;27.60;88.40;;;;;;4990891;28;20061;-50
2022/09/04 12:27:46;;;;;;;5.60;2.75;;;27.60;89.50;;;;;;4979175;28;20050;-51
2022/09/04 12:30:19;;;;;;;3.30;2.60;;;27.60;88.80;;;;;;4979884;28;20038;-54
2022/09/04 12:33:22;;;;;;;4.25;2.40;;;27.50;88.70;;;;;;4978990;28;20051;-52
2022/09/04 12:35:49;;;;;;;;;;;27.70;86.00;;;;;;4964844;28;20493;-54
2022/09/04 12:38:53;;;;;;;2.65;2.45;;;27.60;86.10;;;;;;4980098;28;19928;-55
2022/09/04 12:41:32;;;;;;;4.82;2.67;;;27.50;85.50;;;;;;4981423;28;20054;-54
2022/09/04 12:44:29;;;;;;;3.00;2.70;;;27.40;88.50;;;;;;4980306;28;20050;-55
2022/09/04 12:47:12;;;;;;;3.60;2.60;;;27.50;87.80;;;;;;4977261;28;20591;-50
2022/09/04 12:50:23;;;;;;;4.45;2.75;;;27.60;87.60;;;;;;4979674;28;20050;-53
2022/09/04 12:53:03;;;;;;;2.55;2.35;;;27.60;86.50;;;;;;4977320;28;20058;-51
2022/09/04 12:55:50;;;;;;;2.65;2.45;;;27.60;87.80;;;;;;4979319;28;20092;-56
2022/09/04 12:58:20;;;;;;;3.42;3.08;;;27.70;86.90;;;;;;5009104;28;20463;-53
2022/09/04 13:01:09;;;;;;;2.72;2.47;;;27.70;86.60;;;;;;5033947;28;20086;-52
2022/09/04 13:03:57;;;;;;;4.88;2.35;;;27.70;86.30;;;;;;5035735;28;20143;-48
2022/09/04 13:06:41;;;;;;;5.18;2.60;;;27.70;88.50;;;;;;5029849;28;20152;-55
2022/09/04 13:09:25;;;;;;;4.63;2.55;;;27.70;88.00;;;;;;5036624;28;20506;-50
2022/09/04 13:12:19;;;;;;;2.50;2.30;;;27.70;88.00;;;;;;5032959;28;20053;-50
2022/09/04 13:15:13;;;;;;;6.03;2.78;;;27.70;87.60;;;;;;4977957;28;20054;-54
2022/09/04 13:18:13;;;;;;;2.58;2.38;;;27.70;86.50;;;;;;4978058;28;20046;-51
2022/09/04 13:20:57;;;;;;;3.90;2.67;;;27.60;86.40;;;;;;4978508;28;20096;-48
2022/09/04 13:23:49;;;;;;;3.28;2.63;;;27.50;87.70;;;;;;4963252;28;20060;-50
2022/09/04 13:26:24;;;;;;;3.47;2.20;;;27.60;87.00;;;;;;4978378;28;20580;-49
2022/09/04 13:29:34;;;;;;;3.13;2.50;;;27.60;88.90;;;;;;4978432;28;20129;-49
2022/09/04 13:32:18;;;;;;;5.40;2.70;;;27.60;87.90;;;;;;4976315;28;20128;-51
2022/09/04 13:35:02;;;;;;;4.32;2.63;;;27.50;88.10;;;;;;4977440;28;20349;-50
2022/09/04 13:37:28;;;;;;;3.22;2.90;;;27.50;88.30;;;;;;4978141;28;20089;-52
2022/09/04 13:40:11;;;;;;;2.90;2.60;;;27.30;88.10;;;;;;4978960;28;20149;-51
2022/09/04 13:42:48;;;;;;;4.28;2.65;;;27.30;88.60;;;;;;4976514;28;20058;-49
2022/09/04 13:45:33;;;;;;;3.72;2.85;;;27.30;86.90;;;;;;4978918;28;20074;-49
2022/09/04 13:48:18;;;;;;;6.78;3.03;;;27.30;86.90;;;;;;4976151;28;20516;-49
2022/09/04 13:50:54;;;;;;;5.40;2.95;;;27.30;86.50;;;;;;4978256;28;20035;-52
2022/09/04 13:53:32;;;;;;;4.35;2.70;;;27.30;86.00;;;;;;5007350;28;20379;-51
2022/09/04 13:56:02;;;;;;;5.63;2.80;;;27.40;88.00;;;;;;5014254;28;20092;-51
2022/09/04 13:58:32;;;;;;;4.50;2.95;;;27.50;88.70;;;;;;5012047;28;20049;-52
2022/09/04 14:01:01;;;;;;;3.13;2.53;;;27.60;88.40;;;;;;5013552;28;20056;-52
2022/09/04 14:04:10;;;;;;;3.10;2.90;;;27.70;87.90;;;;;;5013130;28;20050;-52
2022/09/04 14:06:37;;;;;;;4.30;2.97;;;27.70;86.50;;;;;;4925621;29;20063;-53
2022/09/04 14:09:04;;;;;;;4.90;2.65;;;27.70;86.00;;;;;;4928107;29;20094;-53
2022/09/04 14:11:47;;;;;;;3.45;3.05;;;27.70;86.30;;;;;;4927049;29;20052;-51
2022/09/04 14:14:33;;;;;;;4.43;3.17;;;27.60;85.60;;;;;;4929581;29;20059;-54
2022/09/04 14:16:59;;;;;;;4.80;3.35;;;27.70;85.80;;;;;;4929065;29;20094;-51
2022/09/04 14:19:44;;;;;;;4.03;3.30;;;27.70;86.20;;;;;;4932896;29;20114;-54
2022/09/04 14:22:27;;;;;;;3.83;3.38;;;27.70;85.60;;;;;;4925987;29;20043;-50
2022/09/04 14:25:26;;;;;;;5.60;3.10;;;27.60;87.00;;;;;;4929301;29;20601;-51